Time;durP1;ratioP1;P1;durP2;ratioP2;P2;SDS_P1;SDS_P2;PMS_P1;PMS_P2;Temp;Humidity;BMP_temperature;BMP_pressure;BME280_temperature;BME280_humidity;BME280_pressure;Samples;Min_cycle;Max_cycle;Signal;HPM_P1;HPM_P2
2023/10/19 00:00:18;;;;;;;9.13;3.40;;;;;;;8.65;81.22;100033.22;5073964;28;20232;-71
2023/10/19 00:02:44;;;;;;;5.57;2.57;;;;;;;8.62;81.23;100025.72;5073495;28;20426;-71
2023/10/19 00:05:12;;;;;;;6.33;3.10;;;;;;;8.58;81.20;100017.41;5073572;28;20480;-71
2023/10/19 00:07:40;;;;;;;7.63;3.00;;;;;;;8.54;81.28;100012.91;5073199;28;20469;-72
2023/10/19 00:10:07;;;;;;;3.73;2.13;;;;;;;8.50;82.05;100006.50;5088062;22;21004;-71
2023/10/19 00:12:33;;;;;;;6.90;3.37;;;;;;;8.51;82.10;100002.75;5072991;28;20469;-71
2023/10/19 00:15:03;;;;;;;4.27;2.80;;;;;;;8.52;82.62;99988.94;5074155;28;20538;-71
2023/10/19 00:17:30;;;;;;;4.60;1.97;;;;;;;8.56;82.40;99989.94;5076877;28;20725;-72
2023/10/19 00:20:06;;;;;;;4.40;2.40;;;;;;;8.54;82.20;99986.75;5077666;28;20449;-72
2023/10/19 00:22:36;;;;;;;13.17;3.53;;;;;;;8.55;82.62;99982.16;5077243;28;20474;-72
2023/10/19 00:25:04;;;;;;;6.40;2.20;;;;;;;8.56;83.16;99970.25;5077122;28;20527;-72
2023/10/19 00:27:31;;;;;;;5.60;2.23;;;;;;;8.53;82.80;99965.44;5077012;28;20514;-72
2023/10/19 00:30:06;;;;;;;4.20;2.27;;;;;;;8.58;82.79;99959.91;5077041;28;20456;-72
2023/10/19 00:32:38;;;;;;;4.23;2.10;;;;;;;8.57;82.92;99952.94;5077471;28;20425;-72
2023/10/19 00:35:10;;;;;;;4.73;2.00;;;;;;;8.60;82.47;99955.03;5076937;28;20742;-72
2023/10/19 00:37:42;;;;;;;7.97;2.90;;;;;;;8.62;82.27;99939.31;5077066;28;20461;-72
2023/10/19 00:40:19;;;;;;;6.47;3.23;;;;;;;8.63;81.65;99940.91;5076899;28;20512;-72
2023/10/19 00:42:52;;;;;;;5.43;2.47;;;;;;;8.63;82.11;99935.50;5076834;28;20435;-72
2023/10/19 00:45:25;;;;;;;6.70;2.67;;;;;;;8.63;82.44;99935.50;5077159;28;20560;-71
2023/10/19 00:47:53;;;;;;;5.60;2.50;;;;;;;8.65;82.57;99937.94;5076693;28;20826;-71
2023/10/19 00:50:22;;;;;;;4.77;2.13;;;;;;;8.57;82.64;99931.34;5076957;28;20450;-71
2023/10/19 00:52:50;;;;;;;8.03;3.20;;;;;;;8.60;82.32;99922.66;5076573;28;20473;-71
2023/10/19 00:55:25;;;;;;;6.20;3.03;;;;;;;8.61;81.95;99928.84;5076513;28;20433;-71
2023/10/19 00:57:54;;;;;;;8.30;3.07;;;;;;;8.61;81.42;99929.63;5076539;28;20877;-71
2023/10/19 01:00:30;;;;;;;10.80;2.90;;;;;;;8.56;80.97;99925.16;5076119;28;20945;-72
2023/10/19 01:02:59;;;;;;;3.27;1.60;;;;;;;8.56;81.29;99913.56;5076699;28;20797;-72
2023/10/19 01:05:32;;;;;;;3.47;1.77;;;;;;;8.51;81.17;99924.47;5076309;28;20520;-72
2023/10/19 01:08:02;;;;;;;5.90;2.23;;;;;;;8.47;81.77;99918.88;5076650;28;20496;-72
2023/10/19 01:10:31;;;;;;;4.73;1.77;;;;;;;8.45;81.17;99902.16;5076168;28;20453;-72
2023/10/19 01:12:59;;;;;;;9.87;2.37;;;;;;;8.39;81.91;99898.00;5076238;28;20445;-72
2023/10/19 01:15:30;;;;;;;5.90;2.37;;;;;;;8.36;82.60;99893.16;5076245;28;20445;-72
2023/10/19 01:17:58;;;;;;;5.43;2.33;;;;;;;8.37;82.60;99886.72;5076175;28;20449;-72
2023/10/19 01:20:47;;;;;;;7.70;2.50;;;;;;;8.39;83.08;99878.31;5075791;28;20445;-72
2023/10/19 01:23:23;;;;;;;5.07;2.20;;;;;;;8.39;83.52;99875.59;5076525;28;20904;-72
2023/10/19 01:25:59;;;;;;;5.97;2.73;;;;;;;8.40;83.99;99875.28;5075702;28;20421;-72
2023/10/19 01:28:41;;;;;;;8.50;1.67;;;;;;;8.45;83.71;99875.19;5075487;28;20808;-72
2023/10/19 01:31:14;;;;;;;7.73;1.90;;;;;;;8.45;83.73;99869.78;5076219;28;20517;-72
2023/10/19 01:33:41;;;;;;;4.47;2.27;;;;;;;8.46;83.81;99870.59;5076167;28;20410;-72
2023/10/19 01:36:11;;;;;;;7.67;3.03;;;;;;;8.46;83.54;99866.00;5076042;28;20475;-72
2023/10/19 01:38:39;;;;;;;13.07;2.93;;;;;;;8.47;83.66;99854.09;5075799;28;20528;-72
2023/10/19 01:41:13;;;;;;;5.87;2.13;;;;;;;8.49;83.53;99849.19;5075763;28;20815;-72
2023/10/19 01:43:42;;;;;;;8.50;2.50;;;;;;;8.48;82.90;99836.78;5075990;28;20511;-72
2023/10/19 01:46:21;;;;;;;4.00;2.10;;;;;;;8.47;83.35;99824.41;5075594;28;20536;-72
2023/10/19 01:48:49;;;;;;;8.83;2.53;;;;;;;8.48;83.63;99819.81;5075693;28;20426;-72
2023/10/19 01:51:16;;;;;;;6.60;3.17;;;;;;;8.43;84.05;99822.63;5076228;28;20955;-68
2023/10/19 01:53:44;;;;;;;8.27;3.70;;;;;;;8.43;84.10;99822.63;5075874;28;20481;-69
2023/10/19 01:56:10;;;;;;;7.50;3.30;;;;;;;8.41;84.06;99827.50;5076117;28;20464;-71
2023/10/19 01:58:37;;;;;;;4.30;2.20;;;;;;;8.43;83.85;99822.63;5075510;28;20445;-71
2023/10/19 02:01:08;;;;;;;7.17;2.67;;;;;;;8.42;83.82;99819.13;5075379;28;20475;-71
2023/10/19 02:03:35;;;;;;;4.83;2.47;;;;;;;8.43;83.61;99814.53;5076167;28;20430;-71
2023/10/19 02:06:10;;;;;;;4.37;2.20;;;;;;;8.49;82.40;99813.31;5075161;28;20982;-71
2023/10/19 02:08:38;;;;;;;6.17;2.73;;;;;;;8.40;81.72;99812.44;5075074;28;20452;-71
2023/10/19 02:11:13;;;;;;;6.90;3.40;;;;;;;8.39;82.88;99800.06;5075301;28;20465;-71
2023/10/19 02:13:40;;;;;;;7.57;3.53;;;;;;;8.41;82.81;99801.34;5075188;28;20882;-71
2023/10/19 02:16:07;;;;;;;5.00;3.03;;;;;;;8.39;82.54;99802.75;5075383;28;20465;-71
2023/10/19 02:18:35;;;;;;;9.10;2.60;;;;;;;8.37;82.75;99797.66;5075067;28;20445;-71
2023/10/19 02:21:06;;;;;;;6.63;2.43;;;;;;;8.42;82.57;99794.06;5075155;28;20440;-71
2023/10/19 02:23:34;;;;;;;5.27;2.20;;;;;;;8.46;83.08;99795.84;5075378;28;20464;-71
2023/10/19 02:26:00;;;;;;;5.27;2.43;;;;;;;8.47;83.12;99792.03;5074871;28;20442;-71
2023/10/19 02:28:31;;;;;;;8.20;2.83;;;;;;;8.51;83.44;99787.63;5074811;28;20441;-71
2023/10/19 02:30:57;;;;;;;4.03;2.03;;;;;;;8.52;83.62;99783.00;5074519;28;20421;-72
2023/10/19 02:33:26;;;;;;;6.00;3.67;;;;;;;8.49;83.39;99783.63;5074938;28;20441;-72
2023/10/19 02:35:52;;;;;;;7.03;3.03;;;;;;;8.55;83.44;99785.91;5074515;28;20437;-72
2023/10/19 02:38:18;;;;;;;6.10;2.40;;;;;;;8.58;83.25;99784.47;5075309;28;20498;-71
2023/10/19 02:40:46;;;;;;;7.13;2.43;;;;;;;8.62;83.40;99773.88;5074655;28;20203;-71
2023/10/19 02:43:12;;;;;;;4.80;2.53;;;;;;;8.64;82.99;99764.38;5074252;28;20796;-71
2023/10/19 02:45:41;;;;;;;7.50;2.40;;;;;;;8.68;82.60;99765.34;5074717;28;20485;-71
2023/10/19 02:48:11;;;;;;;5.37;3.03;;;;;;;8.70;82.55;99773.91;5074365;28;20511;-71
2023/10/19 02:50:37;;;;;;;8.87;3.60;;;;;;;8.73;82.65;99761.72;5074558;28;20795;-71
2023/10/19 02:53:05;;;;;;;7.70;2.90;;;;;;;8.74;82.49;99757.91;5074012;28;20503;-71
2023/10/19 02:55:31;;;;;;;7.50;2.70;;;;;;;8.73;82.26;99751.72;5074633;28;20437;-71
2023/10/19 02:57:58;;;;;;;6.70;2.50;;;;;;;8.74;82.30;99752.50;5074088;28;20466;-71
2023/10/19 03:00:32;;;;;;;4.97;2.57;;;;;;;8.74;82.49;99741.72;5073917;28;20959;-71
2023/10/19 03:03:01;;;;;;;5.37;2.10;;;;;;;8.77;82.24;99747.28;5074212;28;20436;-71
2023/10/19 03:05:27;;;;;;;6.57;3.37;;;;;;;8.79;82.14;99747.75;5074077;28;20485;-71
2023/10/19 03:07:54;;;;;;;7.00;2.97;;;;;;;8.79;81.67;99741.56;5073711;28;20976;-71
2023/10/19 03:10:34;;;;;;;6.87;3.50;;;;;;;8.76;81.28;99740.28;5073805;28;20456;-71
2023/10/19 03:13:01;;;;;;;4.93;2.03;;;;;;;8.72;81.12;99730.41;5074146;28;20490;-71
2023/10/19 03:15:30;;;;;;;7.33;3.03;;;;;;;8.68;80.60;99732.16;5074270;28;20449;-71
2023/10/19 03:17:56;;;;;;;7.50;3.00;;;;;;;8.70;80.26;99732.63;5073736;28;20473;-71
2023/10/19 03:20:25;;;;;;;6.30;1.83;;;;;;;8.64;80.02;99728.47;5073826;28;20438;-72
2023/10/19 03:22:52;;;;;;;5.73;2.50;;;;;;;8.63;79.91;99724.94;5074100;28;20484;-72
2023/10/19 03:28:08;;;;;;;12.40;4.97;;;;;;;8.66;80.55;99718.16;5073519;28;20522;-72
2023/10/19 03:30:38;;;;;;;7.80;3.00;;;;;;;8.67;81.90;99712.44;5073523;28;20422;-72
2023/10/19 03:33:05;;;;;;;5.80;2.40;;;;;;;8.66;82.58;99710.84;5073900;28;20532;-72
2023/10/19 03:35:34;;;;;;;8.87;2.53;;;;;;;8.66;82.83;99702.75;5073685;28;20445;-72
2023/10/19 03:38:07;;;;;;;7.63;2.70;;;;;;;8.70;82.70;99697.53;5073799;28;20462;-72
2023/10/19 03:40:38;;;;;;;7.30;2.43;;;;;;;8.67;82.91;99690.84;5073597;28;20430;-72
2023/10/19 03:43:16;;;;;;;5.80;2.37;;;;;;;8.66;82.39;99681.16;5074288;28;20437;-71
2023/10/19 03:45:52;;;;;;;5.50;2.60;;;;;;;8.65;82.75;99676.88;5073568;28;20488;-72
2023/10/19 03:48:23;;;;;;;7.60;2.70;;;;;;;8.62;83.44;99684.78;5073219;28;20425;-72
2023/10/19 03:50:53;;;;;;;4.90;2.13;;;;;;;8.70;83.46;99678.63;5072765;28;20425;-72
2023/10/19 03:53:21;;;;;;;7.37;2.70;;;;;;;8.66;83.32;99675.75;5073156;28;20952;-72
2023/10/19 03:55:49;;;;;;;7.13;2.80;;;;;;;8.70;83.16;99676.72;5073492;28;20476;-72
2023/10/19 03:58:16;;;;;;;5.50;2.97;;;;;;;8.66;83.32;99673.06;5073558;28;20442;-71
2023/10/19 04:00:44;;;;;;;6.33;2.80;;;;;;;8.62;83.15;99653.19;5073450;28;20433;-71
2023/10/19 04:03:11;;;;;;;5.60;2.53;;;;;;;8.64;82.90;99653.69;5073103;28;20442;-71
2023/10/19 04:05:41;;;;;;;7.90;3.00;;;;;;;8.63;83.42;99654.78;5073058;28;20815;-71
2023/10/19 04:08:15;;;;;;;8.90;2.63;;;;;;;8.63;82.59;99653.97;5073179;28;20809;-71
2023/10/19 04:10:47;;;;;;;6.67;2.63;;;;;;;8.62;82.43;99653.19;5073367;28;20453;-71
2023/10/19 04:13:14;;;;;;;7.30;2.20;;;;;;;8.54;82.08;99645.84;5073604;28;20437;-71
2023/10/19 04:15:41;;;;;;;7.23;2.23;;;;;;;8.52;82.05;99637.28;5073323;28;20528;-72
2023/10/19 04:18:10;;;;;;;4.97;2.77;;;;;;;8.57;81.52;99647.94;5073459;28;20540;-72
2023/10/19 04:20:54;;;;;;;10.63;3.43;;;;;;;8.56;81.59;99640.94;5073781;28;20859;-71
2023/10/19 04:23:26;;;;;;;6.63;3.10;;;;;;;8.54;82.27;99643.13;5073507;28;20849;-68
2023/10/19 04:25:56;;;;;;;5.70;2.20;;;;;;;8.51;82.26;99643.78;5073034;28;20987;-71
2023/10/19 04:28:30;;;;;;;8.07;3.30;;;;;;;8.49;82.48;99629.78;5073228;28;20436;-71
2023/10/19 04:31:00;;;;;;;4.57;2.90;;;;;;;8.47;82.13;99622.00;5073191;28;20504;-71
2023/10/19 04:33:28;;;;;;;7.43;2.80;;;;;;;8.46;82.74;99616.94;5073039;28;20441;-73
2023/10/19 04:35:55;;;;;;;4.83;2.47;;;;;;;8.49;83.52;99624.38;5072855;28;20465;-73
2023/10/19 04:38:24;;;;;;;6.63;2.90;;;;;;;8.48;83.39;99620.09;5073206;28;20444;-73
2023/10/19 04:40:51;;;;;;;7.50;2.80;;;;;;;8.47;83.06;99623.91;5072443;28;20467;-72
2023/10/19 04:43:17;;;;;;;6.93;3.23;;;;;;;8.51;83.65;99611.41;5072731;28;20524;-72
2023/10/19 04:45:44;;;;;;;9.70;3.23;;;;;;;8.52;83.73;99611.06;5072767;28;20485;-72
2023/10/19 04:48:11;;;;;;;4.50;2.80;;;;;;;8.53;83.19;99609.97;5072965;28;20457;-72
2023/10/19 04:50:39;;;;;;;10.23;3.67;;;;;;;8.57;83.20;99605.53;5072340;28;20476;-72
2023/10/19 04:53:06;;;;;;;7.30;3.37;;;;;;;8.57;83.51;99605.53;5072748;28;20441;-72
2023/10/19 04:55:34;;;;;;;9.23;3.60;;;;;;;8.60;83.41;99606.81;5072909;28;20516;-72
2023/10/19 04:58:01;;;;;;;7.30;3.37;;;;;;;8.60;83.53;99606.81;5072737;28;20460;-72
2023/10/19 05:00:27;;;;;;;9.03;3.33;;;;;;;8.62;83.20;99604.59;5072396;28;20537;-72
2023/10/19 05:02:55;;;;;;;9.50;3.60;;;;;;;8.63;83.62;99603.47;5074691;28;20473;-73
2023/10/19 05:05:21;;;;;;;11.20;4.10;;;;;;;8.62;84.28;99601.91;5076248;28;20487;-70
2023/10/19 05:07:48;;;;;;;10.47;3.17;;;;;;;8.58;84.07;99593.63;5075738;28;20514;-70
2023/10/19 05:10:14;;;;;;;8.40;3.50;;;;;;;8.55;83.99;99596.19;5076293;28;20952;-74
2023/10/19 05:12:42;;;;;;;5.30;2.73;;;;;;;8.57;84.61;99585.84;5076423;28;20445;-76
2023/10/19 05:15:10;;;;;;;7.03;3.13;;;;;;;8.58;84.73;99590.13;5076297;28;20536;-76
2023/10/19 05:17:36;;;;;;;7.57;3.13;;;;;;;8.56;85.23;99595.06;5077249;28;20552;-72
2023/10/19 05:20:05;;;;;;;5.47;3.30;;;;;;;8.45;86.57;99593.72;5076138;28;21012;-73
2023/10/19 05:22:32;;;;;;;9.97;5.57;;;;;;;8.29;85.60;99588.72;5076300;28;20438;-73
2023/10/19 05:24:59;;;;;;;7.33;3.53;;;;;;;8.27;85.74;99584.72;5076282;28;20538;-70
2023/10/19 05:27:26;;;;;;;15.70;4.10;;;;;;;8.24;86.53;99586.16;5076343;28;20453;-70
2023/10/19 05:29:54;;;;;;;5.80;2.63;;;;;;;8.31;87.69;99591.09;5076063;28;20441;-72
2023/10/19 05:32:20;;;;;;;15.30;3.67;;;;;;;8.27;87.44;99595.53;5076346;28;20848;-72
2023/10/19 05:34:47;;;;;;;7.17;3.77;;;;;;;8.25;87.57;99600.44;5076230;28;20442;-72
2023/10/19 05:37:16;;;;;;;8.30;2.37;;;;;;;8.17;87.74;99603.88;5075674;28;20961;-70
2023/10/19 05:39:42;;;;;;;6.33;2.93;;;;;;;8.17;88.84;99606.59;5076279;28;20488;-73
2023/10/19 05:42:09;;;;;;;9.23;3.60;;;;;;;8.17;89.63;99603.88;5075750;28;20473;-72
2023/10/19 05:44:35;;;;;;;9.47;2.87;;;;;;;8.19;90.85;99604.34;5075666;28;20929;-71
2023/10/19 05:47:03;;;;;;;6.70;3.27;;;;;;;8.21;91.43;99611.06;5075796;28;20469;-72
2023/10/19 05:49:30;;;;;;;5.40;2.30;;;;;;;8.22;92.06;99612.63;5075647;28;20468;-71
2023/10/19 05:51:57;;;;;;;7.60;3.10;;;;;;;8.25;91.79;99606.63;5075622;28;20496;-71
2023/10/19 05:54:24;;;;;;;4.87;2.50;;;;;;;8.27;91.73;99600.91;5075558;28;20464;-71
2023/10/19 05:56:51;;;;;;;4.50;2.80;;;;;;;8.31;91.74;99599.97;5075689;28;20536;-70
2023/10/19 05:59:18;;;;;;;10.83;3.37;;;;;;;8.31;92.57;99583.00;5075449;28;20980;-70
2023/10/19 06:01:46;;;;;;;8.53;4.00;;;;;;;8.33;92.64;99591.59;5075432;28;20461;-70
2023/10/19 06:04:14;;;;;;;7.30;3.07;;;;;;;8.31;92.89;99578.41;5075344;28;20433;-70
2023/10/19 06:06:41;;;;;;;5.77;2.80;;;;;;;8.25;93.25;99581.56;5075164;28;20866;-70
2023/10/19 06:09:11;;;;;;;14.73;3.80;;;;;;;8.17;94.25;99571.50;5090020;22;20992;-68
2023/10/19 06:11:42;;;;;;;7.73;3.60;;;;;;;8.18;94.68;99568.50;5075213;28;20449;-68
2023/10/19 06:14:09;;;;;;;8.00;3.17;;;;;;;8.20;95.13;99571.69;5074852;28;20425;-68
2023/10/19 06:16:36;;;;;;;6.23;2.07;;;;;;;8.20;95.76;99563.59;5075421;28;20457;-68
2023/10/19 06:19:03;;;;;;;8.27;3.80;;;;;;;8.19;96.51;99566.59;5075280;28;20476;-68
2023/10/19 06:21:31;;;;;;;7.33;3.53;;;;;;;8.16;96.38;99556.44;5075330;28;20438;-68
2023/10/19 06:23:58;;;;;;;13.97;3.70;;;;;;;8.05;95.73;99558.59;5074994;28;20447;-68
2023/10/19 06:26:24;;;;;;;6.57;3.07;;;;;;;7.95;95.51;99551.56;5075069;28;20507;-69
2023/10/19 06:28:56;;;;;;;6.47;2.83;;;;;;;7.91;96.52;99558.69;5074800;28;20441;-69
2023/10/19 06:31:23;;;;;;;5.70;3.53;;;;;;;7.89;96.90;99554.72;5075230;28;20422;-69
2023/10/19 06:33:50;;;;;;;8.70;3.80;;;;;;;7.91;97.19;99547.09;5074452;28;20949;-69
2023/10/19 06:36:17;;;;;;;6.80;3.40;;;;;;;7.86;97.46;99544.53;5074721;28;20540;-69
2023/10/19 06:38:46;;;;;;;6.03;2.53;;;;;;;7.81;98.55;99548.16;5075053;28;20449;-68
2023/10/19 06:41:13;;;;;;;14.60;4.13;;;;;;;7.83;98.49;99546.75;5074321;28;20925;-68
2023/10/19 06:43:41;;;;;;;6.83;3.53;;;;;;;7.82;99.21;99545.16;5074307;28;20455;-67
2023/10/19 06:46:11;;;;;;;7.63;3.87;;;;;;;7.83;99.08;99546.75;5074090;28;20571;-67
2023/10/19 06:48:37;;;;;;;6.60;3.47;;;;;;;7.86;99.16;99544.53;5074833;28;20421;-67
2023/10/19 06:51:05;;;;;;;7.90;3.60;;;;;;;7.85;99.58;99543.75;5074694;28;20788;-67
2023/10/19 06:53:32;;;;;;;4.30;2.03;;;;;;;7.88;99.87;99536.94;5074389;28;20449;-67
2023/10/19 06:56:01;;;;;;;8.97;3.80;;;;;;;7.86;99.20;99521.06;5073955;28;20433;-67
2023/10/19 06:58:27;;;;;;;6.67;2.63;;;;;;;7.90;99.37;99523.94;5074631;28;20441;-67
2023/10/19 07:00:59;;;;;;;7.93;3.90;;;;;;;7.87;99.95;99514.56;5074307;28;20433;-67
2023/10/19 07:03:28;;;;;;;5.23;2.97;;;;;;;7.87;99.73;99519.16;5074249;28;20422;-67
2023/10/19 07:05:55;;;;;;;18.80;4.27;;;;;;;7.88;99.84;99505.41;5074011;28;20477;-67
2023/10/19 07:08:22;;;;;;;7.33;2.53;;;;;;;7.91;100.00;99503.97;5073949;28;21008;-67
2023/10/19 07:10:49;;;;;;;5.77;2.60;;;;;;;7.87;99.30;99503.00;5074230;28;20437;-67
2023/10/19 07:13:17;;;;;;;6.40;3.17;;;;;;;7.95;99.00;99511.13;5074358;28;20469;-67
2023/10/19 07:15:46;;;;;;;9.23;3.60;;;;;;;8.01;99.49;99514.47;5073813;28;20437;-67
2023/10/19 07:18:13;;;;;;;11.30;3.50;;;;;;;8.06;99.67;99517.06;5073935;28;20444;-67
2023/10/19 07:20:42;;;;;;;4.47;2.03;;;;;;;8.07;100.00;99524.03;5073632;28;20965;-67
2023/10/19 07:23:18;;;;;;;11.07;4.23;;;;;;;8.07;99.92;99518.66;5073872;28;20792;-67
2023/10/19 07:25:45;;;;;;;7.87;3.97;;;;;;;8.13;99.82;99522.78;5072973;28;20860;-67
2023/10/19 07:28:13;;;;;;;6.03;3.47;;;;;;;8.18;99.53;99522.66;5074300;28;20438;-67
2023/10/19 07:30:42;;;;;;;7.20;3.07;;;;;;;8.17;98.58;99518.38;5073460;28;20810;-67
2023/10/19 07:33:09;;;;;;;9.80;3.50;;;;;;;8.19;98.32;99526.13;5073389;28;20986;-67
2023/10/19 07:35:37;;;;;;;7.30;3.03;;;;;;;8.18;97.49;99530.75;5073321;28;20811;-69
2023/10/19 07:38:07;;;;;;;7.93;3.70;;;;;;;8.21;96.53;99532.81;5073294;28;20985;-69
2023/10/19 07:40:33;;;;;;;6.80;3.40;;;;;;;8.24;96.61;99534.91;5073539;28;20449;-69
2023/10/19 07:43:00;;;;;;;9.07;3.93;;;;;;;8.26;96.67;99529.97;5073814;28;20510;-69
2023/10/19 07:45:28;;;;;;;9.07;4.50;;;;;;;8.32;96.08;99530.63;5073826;28;20525;-68
2023/10/19 07:47:56;;;;;;;10.40;3.70;;;;;;;8.38;95.71;99523.25;5073186;28;20472;-68
2023/10/19 07:50:23;;;;;;;9.23;3.50;;;;;;;8.40;95.96;99524.50;5073510;28;20524;-68
2023/10/19 07:52:51;;;;;;;8.73;3.07;;;;;;;8.40;94.53;99527.22;5073721;28;20467;-68
2023/10/19 07:55:19;;;;;;;8.50;3.10;;;;;;;8.35;95.19;99517.31;5073815;28;20477;-68
2023/10/19 07:57:46;;;;;;;5.30;2.70;;;;;;;8.36;95.94;99520.81;5073401;28;20457;-69
2023/10/19 08:00:14;;;;;;;4.90;3.03;;;;;;;8.43;96.23;99515.78;5073795;28;20480;-69
2023/10/19 08:02:42;;;;;;;5.10;2.67;;;;;;;8.51;96.53;99514.25;5073855;28;20438;-69
2023/10/19 08:05:11;;;;;;;9.00;3.07;;;;;;;8.61;96.13;99524.72;5073091;28;20437;-69
2023/10/19 08:07:39;;;;;;;8.20;4.10;;;;;;;8.67;96.00;99528.06;5073495;28;21045;-69
2023/10/19 08:10:09;;;;;;;6.50;3.17;;;;;;;8.73;95.71;99519.53;5073178;28;20461;-69
2023/10/19 08:12:36;;;;;;;5.73;3.27;;;;;;;8.77;95.74;99523.19;5073361;28;20985;-68
2023/10/19 08:15:02;;;;;;;9.00;3.90;;;;;;;8.80;95.38;99519.84;5073259;28;20440;-70
2023/10/19 08:17:30;;;;;;;10.60;3.57;;;;;;;8.83;95.56;99511.13;5072873;28;20456;-68
2023/10/19 08:19:56;;;;;;;6.17;3.40;;;;;;;8.86;95.46;99508.91;5072932;28;20437;-68
2023/10/19 08:22:26;;;;;;;12.30;4.17;;;;;;;8.83;95.47;99491.44;5074146;28;20445;-66
2023/10/19 08:24:54;;;;;;;9.10;2.87;;;;;;;8.83;95.26;99486.81;5073377;28;20445;-69
2023/10/19 08:27:21;;;;;;;7.40;3.60;;;;;;;8.85;94.96;99486.50;5073046;28;20573;-69
2023/10/19 08:29:48;;;;;;;8.77;3.73;;;;;;;8.85;94.07;99486.50;5073162;28;20437;-68
2023/10/19 08:32:16;;;;;;;13.67;4.20;;;;;;;8.91;93.96;99490.66;5073247;28;20522;-68
2023/10/19 08:34:42;;;;;;;7.60;2.73;;;;;;;8.98;93.90;99488.25;5073412;28;20442;-70
2023/10/19 08:37:10;;;;;;;9.83;3.80;;;;;;;9.01;93.58;99489.53;5076037;28;20449;-70
2023/10/19 08:39:38;;;;;;;13.80;3.43;;;;;;;9.04;93.49;99470.78;5077487;28;20502;-69
2023/10/19 08:42:06;;;;;;;6.93;3.30;;;;;;;9.04;93.55;99453.78;5076575;28;20921;-69
2023/10/19 08:44:34;;;;;;;7.73;3.50;;;;;;;9.09;93.09;99453.63;5076813;28;20430;-69
2023/10/19 08:47:00;;;;;;;11.27;3.63;;;;;;;9.14;93.38;99464.28;5076653;28;20496;-69
2023/10/19 08:49:27;;;;;;;11.30;4.10;;;;;;;9.22;93.31;99465.38;5077141;28;20437;-69
2023/10/19 08:51:55;;;;;;;6.17;3.70;;;;;;;9.26;93.46;99477.94;5076946;28;20433;-69
2023/10/19 08:54:22;;;;;;;9.13;4.03;;;;;;;9.29;92.67;99479.97;5076950;28;20449;-69
2023/10/19 08:56:50;;;;;;;9.03;2.90;;;;;;;9.33;92.11;99489.03;5076635;28;20547;-70
2023/10/19 08:59:17;;;;;;;9.20;3.70;;;;;;;9.33;91.88;99480.13;5076951;28;20441;-70
2023/10/19 09:01:44;;;;;;;5.67;2.70;;;;;;;9.31;91.79;99471.56;5076656;28;20440;-70
2023/10/19 09:04:11;;;;;;;6.17;3.70;;;;;;;9.38;91.37;99474.56;5076472;28;20440;-70
2023/10/19 09:06:42;;;;;;;6.20;3.57;;;;;;;9.32;91.52;99481.25;5076216;28;20485;-70
2023/10/19 09:09:13;;;;;;;4.93;2.70;;;;;;;9.37;91.30;99474.91;5076329;28;20463;-70
2023/10/19 09:11:40;;;;;;;9.27;3.97;;;;;;;9.37;91.01;99472.19;5076375;28;20513;-70
2023/10/19 09:14:08;;;;;;;10.53;4.10;;;;;;;9.30;90.52;99470.78;5076031;28;20436;-70
2023/10/19 09:16:36;;;;;;;9.50;3.23;;;;;;;9.31;90.90;99458.06;5075873;28;20456;-70
2023/10/19 09:19:04;;;;;;;8.43;3.57;;;;;;;9.33;90.33;99447.72;5076243;28;20445;-70
2023/10/19 09:21:32;;;;;;;9.20;3.90;;;;;;;9.28;91.32;99445.97;5076108;28;20452;-69
2023/10/19 09:23:59;;;;;;;5.97;3.03;;;;;;;9.34;91.30;99430.38;5076363;28;20441;-69
2023/10/19 09:26:26;;;;;;;7.90;4.13;;;;;;;9.37;91.70;99442.47;5076533;28;20489;-69
2023/10/19 09:28:54;;;;;;;8.33;3.87;;;;;;;9.37;91.36;99435.16;5075748;28;20481;-69
2023/10/19 09:31:24;;;;;;;6.43;3.20;;;;;;;9.33;90.44;99437.69;5075835;28;20446;-70
2023/10/19 09:33:53;;;;;;;19.93;4.10;;;;;;;9.26;89.65;99442.81;5076010;28;20868;-70
2023/10/19 09:36:22;;;;;;;7.40;3.47;;;;;;;9.19;88.84;99447.09;5075834;28;20549;-70
2023/10/19 09:38:50;;;;;;;5.97;2.70;;;;;;;9.17;89.32;99444.72;5075853;28;20446;-70
2023/10/19 09:41:18;;;;;;;9.67;4.23;;;;;;;9.14;90.27;99437.25;5075849;28;20524;-70
2023/10/19 09:43:46;;;;;;;9.37;3.30;;;;;;;9.14;90.30;99448.06;5075792;28;20469;-70
2023/10/19 09:46:21;;;;;;;7.13;3.33;;;;;;;9.14;90.68;99442.66;5075687;28;20524;-70
2023/10/19 09:48:49;;;;;;;7.17;4.00;;;;;;;9.18;91.43;99440.13;5075021;28;20421;-70
2023/10/19 09:51:19;;;;;;;6.83;3.57;;;;;;;9.25;91.79;99451.22;5075349;28;21024;-70
2023/10/19 09:53:49;;;;;;;6.77;3.60;;;;;;;9.26;92.50;99440.09;5075578;28;20449;-70
2023/10/19 09:56:21;;;;;;;6.80;3.00;;;;;;;9.23;92.43;99432.63;5075213;28;20962;-70
2023/10/19 09:58:51;;;;;;;7.27;3.50;;;;;;;9.21;91.03;99432.16;5075251;28;20890;-70
2023/10/19 10:01:21;;;;;;;14.07;4.17;;;;;;;9.28;90.73;99428.97;5075502;28;20457;-70
2023/10/19 10:03:51;;;;;;;9.50;4.90;;;;;;;9.29;90.94;99444.84;5075585;28;20459;-70
2023/10/19 10:06:27;;;;;;;6.30;3.90;;;;;;;9.27;91.18;99449.00;5075408;28;20580;-70
2023/10/19 10:08:54;;;;;;;13.13;4.43;;;;;;;9.25;91.49;99443.09;5075071;28;20459;-70
2023/10/19 10:11:26;;;;;;;9.20;3.70;;;;;;;9.30;91.17;99449.16;5075269;28;20450;-70
2023/10/19 10:13:53;;;;;;;11.43;4.17;;;;;;;9.27;90.60;99440.91;5075286;28;20430;-70
2023/10/19 10:16:24;;;;;;;9.03;4.90;;;;;;;9.27;90.73;99435.50;5074698;28;20540;-70
2023/10/19 10:18:55;;;;;;;8.57;3.47;;;;;;;9.31;90.74;99428.34;5075343;28;20434;-70
2023/10/19 10:21:24;;;;;;;9.00;3.57;;;;;;;9.33;91.70;99415.28;5075096;28;20409;-70
2023/10/19 10:23:52;;;;;;;9.17;3.00;;;;;;;9.27;92.47;99414.66;5074850;28;20926;-71
2023/10/19 10:26:24;;;;;;;8.63;3.33;;;;;;;9.25;92.12;99411.50;5075191;28;20534;-70
2023/10/19 10:29:11;;;;;;;7.87;3.50;;;;;;;9.24;92.63;99398.28;5074870;28;20418;-71
2023/10/19 10:31:42;;;;;;;10.93;4.40;;;;;;;9.22;93.23;99390.53;5074519;28;21032;-70
2023/10/19 10:34:12;;;;;;;7.37;2.60;;;;;;;9.29;93.66;99395.41;5075156;28;20521;-70
2023/10/19 10:36:58;;;;;;;7.73;3.50;;;;;;;9.25;94.50;99389.06;5075060;28;20467;-68
2023/10/19 10:39:26;;;;;;;5.90;2.50;;;;;;;9.28;94.77;99386.53;5074676;28;20525;-69
2023/10/19 10:41:56;;;;;;;8.77;3.97;;;;;;;9.30;96.30;99387.00;5074966;28;20437;-69
2023/10/19 10:44:37;;;;;;;7.30;3.17;;;;;;;9.30;97.15;99381.59;5074901;28;20520;-68
2023/10/19 10:47:06;;;;;;;9.73;3.00;;;;;;;9.25;98.45;99392.59;5074137;28;21002;-70
2023/10/19 10:49:34;;;;;;;8.17;3.53;;;;;;;9.17;99.62;99385.28;5074277;28;20442;-72
2023/10/19 10:52:01;;;;;;;8.20;3.67;;;;;;;9.15;100.00;99394.81;5074804;28;20473;-70
2023/10/19 10:54:27;;;;;;;6.93;3.37;;;;;;;9.10;100.00;99396.56;5074399;28;20440;-74
2023/10/19 10:56:54;;;;;;;7.30;2.53;;;;;;;9.06;100.00;99387.53;5074375;28;20457;-72
2023/10/19 10:59:21;;;;;;;8.73;4.27;;;;;;;9.07;100.00;99381.03;5074000;28;20441;-70
2023/10/19 11:01:47;;;;;;;9.40;4.50;;;;;;;9.03;100.00;99371.16;5073872;28;20476;-71
2023/10/19 11:04:15;;;;;;;6.90;2.77;;;;;;;9.03;100.00;99371.97;5074516;28;20487;-70
2023/10/19 11:06:51;;;;;;;9.83;3.33;;;;;;;9.07;100.00;99372.91;5074129;28;20495;-71
2023/10/19 11:09:19;;;;;;;7.83;4.60;;;;;;;9.00;100.00;99369.91;5073800;28;20818;-72
2023/10/19 11:11:46;;;;;;;10.60;3.30;;;;;;;8.98;100.00;99374.03;5074063;28;20441;-74
2023/10/19 11:14:13;;;;;;;7.87;3.47;;;;;;;8.93;100.00;99382.31;5074048;28;20469;-73
2023/10/19 11:16:40;;;;;;;6.27;3.30;;;;;;;8.89;100.00;99384.84;5073853;28;20532;-73
2023/10/19 11:19:06;;;;;;;8.40;4.00;;;;;;;8.86;100.00;99384.72;5074494;28;20440;-68
2023/10/19 11:21:34;;;;;;;7.10;3.33;;;;;;;8.78;100.00;99387.09;5074149;28;20452;-68
2023/10/19 11:24:02;;;;;;;7.80;3.37;;;;;;;8.61;100.00;99370.09;5073981;28;20441;-70
2023/10/19 11:26:29;;;;;;;11.10;3.93;;;;;;;8.56;100.00;99376.44;5073567;28;20462;-70
2023/10/19 11:29:00;;;;;;;10.90;4.53;;;;;;;8.51;100.00;99371.22;5073553;28;20925;-71
2023/10/19 11:31:27;;;;;;;8.20;3.80;;;;;;;8.45;100.00;99365.16;5073894;28;20543;-70
2023/10/19 11:33:55;;;;;;;6.27;3.10;;;;;;;8.48;100.00;99352.94;5074322;28;20467;-71
2023/10/19 11:36:23;;;;;;;7.90;3.97;;;;;;;8.51;100.00;99357.72;5073845;28;20457;-71
2023/10/19 11:38:51;;;;;;;6.80;4.03;;;;;;;8.50;100.00;99358.81;5073660;28;20545;-71
2023/10/19 11:41:19;;;;;;;7.37;4.10;;;;;;;8.56;100.00;99354.84;5073303;28;20437;-71
2023/10/19 11:43:49;;;;;;;9.33;4.70;;;;;;;8.56;100.00;99350.25;5073602;28;20532;-71
2023/10/19 11:46:17;;;;;;;10.17;4.47;;;;;;;8.57;100.00;99353.72;5073376;28;20514;-71
2023/10/19 11:48:44;;;;;;;5.80;3.33;;;;;;;8.62;100.00;99350.88;5073327;28;20484;-70